createdAt,value
2023-03-08T00:01:27.229Z,45.10
2023-03-08T00:03:57.865Z,42.43
2023-03-08T00:06:27.532Z,40.03
2023-03-08T00:08:58.173Z,38.00
2023-03-08T00:11:27.532Z,43.33
2023-03-08T00:13:57.761Z,39.90
2023-03-08T00:16:26.525Z,45.23
2023-03-08T00:18:54.901Z,47.13
2023-03-08T00:21:23.606Z,41.90
2023-03-08T00:23:54.565Z,46.90
2023-03-08T00:26:23.096Z,48.57
2023-03-08T00:28:52.589Z,60.90
2023-03-08T00:31:23.122Z,48.97
2023-03-08T00:33:55.384Z,52.97
2023-03-08T00:36:24.194Z,51.70
2023-03-08T00:38:52.618Z,51.87
2023-03-08T00:41:21.307Z,57.13
2023-03-08T00:43:50.313Z,66.40
2023-03-08T00:46:18.672Z,57.00
2023-03-08T00:48:48.539Z,64.93
2023-03-08T00:51:19.584Z,69.80
2023-03-08T00:53:48.706Z,77.90
2023-03-08T00:56:17.428Z,83.13
2023-03-08T00:58:47.157Z,92.87
2023-03-08T01:01:18.075Z,97.63
2023-03-08T01:03:50.332Z,86.83
2023-03-08T01:06:18.948Z,108.40
2023-03-08T01:08:47.205Z,117.83
2023-03-08T01:11:22.392Z,117.93
2023-03-08T01:13:51.948Z,112.03
2023-03-08T01:16:23.020Z,116.60
2023-03-08T01:18:56.639Z,115.97
2023-03-08T01:21:26.102Z,129.13
2023-03-08T01:23:55.175Z,129.87
2023-03-08T01:26:27.367Z,134.60
2023-03-08T01:28:59.026Z,137.07
2023-03-08T01:31:31.456Z,144.93
2023-03-08T01:34:02.578Z,136.20
2023-03-08T01:36:30.952Z,126.43
2023-03-08T01:39:02.338Z,140.33
2023-03-08T01:41:33.109Z,110.43
2023-03-08T01:44:02.650Z,123.90
2023-03-08T01:46:32.120Z,125.87
2023-03-08T01:49:12.707Z,122.60
2023-03-08T01:51:45.705Z,133.23
2023-03-08T01:54:18.645Z,108.20
2023-03-08T01:56:50.631Z,116.23
2023-03-08T01:59:22.035Z,127.63
2023-03-08T02:01:51.164Z,162.63
2023-03-08T02:04:22.000Z,145.87
2023-03-08T02:06:50.637Z,146.13
2023-03-08T02:09:23.449Z,165.83
2023-03-08T02:11:55.052Z,152.27
2023-03-08T02:14:23.494Z,148.97
2023-03-08T02:16:53.419Z,149.57
2023-03-08T02:19:30.411Z,148.17
2023-03-08T02:21:58.844Z,141.13
2023-03-08T02:24:28.524Z,174.00
2023-03-08T02:27:03.323Z,152.50
2023-03-08T02:29:31.831Z,201.47
2023-03-08T02:32:00.134Z,151.33
2023-03-08T02:34:28.596Z,241.17
2023-03-08T02:36:56.984Z,202.47
2023-03-08T02:39:25.406Z,252.00
2023-03-08T02:41:57.959Z,203.67
2023-03-08T02:44:26.367Z,155.37
2023-03-08T02:46:54.998Z,231.63
2023-03-08T02:49:23.500Z,243.80
2023-03-08T02:51:53.374Z,215.20
2023-03-08T02:54:22.668Z,254.70
2023-03-08T02:56:51.021Z,253.90
2023-03-08T02:59:22.778Z,293.87
2023-03-08T03:01:52.982Z,293.17
2023-03-08T03:04:21.369Z,277.03
2023-03-08T03:06:49.756Z,298.70
2023-03-08T03:09:18.359Z,329.93
2023-03-08T03:11:46.928Z,434.20
2023-03-08T03:14:15.635Z,405.63
2023-03-08T03:16:46.840Z,432.87
2023-03-08T03:19:15.284Z,381.70
2023-03-08T03:21:43.693Z,550.03
2023-03-08T03:24:12.144Z,615.13
2023-03-08T03:26:46.549Z,612.83
2023-03-08T03:29:14.901Z,547.00
2023-03-08T03:31:48.536Z,767.90
2023-03-08T03:34:18.076Z,505.47
2023-03-08T03:36:48.012Z,443.90
2023-03-08T03:39:17.465Z,592.07
2023-03-08T03:41:47.145Z,687.27
2023-03-08T03:44:16.343Z,1142.63
2023-03-08T03:46:48.155Z,1268.90
2023-03-08T03:49:20.352Z,577.43
2023-03-08T03:51:49.213Z,1125.70
2023-03-08T03:54:40.132Z,604.17
2023-03-08T03:57:08.620Z,639.73
2023-03-08T03:59:40.742Z,736.90
2023-03-08T04:02:11.044Z,562.97
2023-03-08T04:04:51.688Z,1044.60
2023-03-08T04:07:23.684Z,599.33
2023-03-08T04:10:02.355Z,942.97
2023-03-08T04:12:32.318Z,571.03
2023-03-08T04:15:00.732Z,699.23
2023-03-08T04:17:34.045Z,571.63
2023-03-08T04:20:04.353Z,765.53
2023-03-08T04:22:36.935Z,655.20
2023-03-08T04:25:16.179Z,543.13
2023-03-08T04:27:50.554Z,1044.20
2023-03-08T04:30:19.660Z,729.13
2023-03-08T04:32:49.400Z,1294.27
2023-03-08T04:35:18.404Z,556.30
2023-03-08T04:37:50.194Z,575.80
2023-03-08T04:40:21.258Z,469.63
2023-03-08T04:42:55.728Z,743.37
2023-03-08T04:45:29.385Z,461.50
2023-03-08T04:48:01.769Z,841.83
2023-03-08T04:50:31.071Z,1036.20
2023-03-08T04:52:59.964Z,451.03
2023-03-08T04:55:29.556Z,508.47
2023-03-08T04:57:58.820Z,686.50
2023-03-08T05:00:30.626Z,822.60
2023-03-08T05:03:01.208Z,564.90
2023-03-08T05:05:30.244Z,932.57
2023-03-08T05:08:04.259Z,509.30
2023-03-08T05:10:34.282Z,814.37
2023-03-08T05:13:02.710Z,579.80
2023-03-08T05:15:31.038Z,736.10
2023-03-08T05:17:59.385Z,624.47
2023-03-08T05:20:29.164Z,590.33
2023-03-08T05:22:59.536Z,662.10
2023-03-08T05:25:44.785Z,774.53
2023-03-08T05:28:15.863Z,484.77
2023-03-08T05:30:45.856Z,528.37
2023-03-08T05:33:15.693Z,648.40
2023-03-08T05:35:45.457Z,592.10
2023-03-08T05:38:14.053Z,539.87
2023-03-08T05:40:42.916Z,561.43
2023-03-08T05:43:12.460Z,668.30
2023-03-08T05:45:41.103Z,581.30
2023-03-08T05:48:09.916Z,600.27
2023-03-08T05:50:39.301Z,539.00
2023-03-08T05:53:09.032Z,539.70
2023-03-08T05:55:38.089Z,479.20
2023-03-08T05:58:07.019Z,461.63
2023-03-08T06:00:35.873Z,517.33
2023-03-08T06:03:04.639Z,418.60
2023-03-08T06:05:36.537Z,419.53
2023-03-08T06:08:05.185Z,409.03
2023-03-08T06:10:35.780Z,436.43
2023-03-08T06:13:04.561Z,336.27
2023-03-08T06:15:33.102Z,305.40
2023-03-08T06:18:01.886Z,315.60
2023-03-08T06:20:31.585Z,334.20
2023-03-08T06:22:59.939Z,340.73
2023-03-08T06:25:29.298Z,337.37
2023-03-08T06:27:59.027Z,284.10
2023-03-08T06:30:33.174Z,294.43
2023-03-08T06:33:01.581Z,251.70
2023-03-08T06:35:30.062Z,284.87
2023-03-08T06:38:02.202Z,210.93
2023-03-08T06:40:30.679Z,228.27
2023-03-08T06:43:00.750Z,220.17
2023-03-08T06:45:29.256Z,159.30
2023-03-08T06:47:57.683Z,166.53
2023-03-08T06:50:26.104Z,126.10
2023-03-08T06:52:56.238Z,119.63
2023-03-08T06:55:36.948Z,144.63
2023-03-08T06:58:07.276Z,124.80
2023-03-08T07:00:36.624Z,113.83
2023-03-08T07:03:05.214Z,104.93
2023-03-08T07:05:33.614Z,116.50
2023-03-08T07:08:02.053Z,110.20
2023-03-08T07:10:30.597Z,96.67
2023-03-08T07:12:59.058Z,117.00
2023-03-08T07:15:28.927Z,122.80
2023-03-08T07:17:58.271Z,117.53
2023-03-08T07:20:28.579Z,126.13
2023-03-08T07:22:57.429Z,111.97
2023-03-08T07:25:25.996Z,141.47
2023-03-08T07:27:54.391Z,128.33
2023-03-08T07:30:23.118Z,137.00
2023-03-08T07:32:54.851Z,124.27
2023-03-08T07:35:23.214Z,112.07
2023-03-08T07:37:51.748Z,102.80
2023-03-08T07:40:20.468Z,106.47
2023-03-08T07:42:49.137Z,97.37
2023-03-08T07:45:36.325Z,105.13
2023-03-08T07:48:07.086Z,97.97
2023-03-08T07:50:35.973Z,110.57
2023-03-08T07:53:05.004Z,89.53
2023-03-08T07:55:33.494Z,85.63
2023-03-08T07:58:01.945Z,74.00
2023-03-08T08:00:30.594Z,83.83
2023-03-08T08:02:59.194Z,76.07
2023-03-08T08:05:29.168Z,88.30
2023-03-08T08:07:57.560Z,74.03
2023-03-08T08:10:26.218Z,82.73
2023-03-08T08:12:54.600Z,67.80
2023-03-08T08:15:25.309Z,58.73
2023-03-08T08:17:54.356Z,60.90
2023-03-08T08:20:22.833Z,66.77
2023-03-08T08:22:53.430Z,59.43
2023-03-08T08:25:22.751Z,72.77
2023-03-08T08:27:52.040Z,58.83
2023-03-08T08:30:21.403Z,62.20
2023-03-08T08:32:49.956Z,69.97
2023-03-08T08:35:18.560Z,64.63
2023-03-08T08:37:46.932Z,66.90
2023-03-08T08:40:17.146Z,71.03
2023-03-08T08:42:45.541Z,67.73
2023-03-08T08:45:13.905Z,65.87
2023-03-08T08:47:42.223Z,79.53
2023-03-08T08:50:14.054Z,57.60
2023-03-08T08:52:42.827Z,68.70
2023-03-08T08:55:11.768Z,59.27
2023-03-08T08:57:41.509Z,58.37
2023-03-08T09:00:13.101Z,57.30
2023-03-08T09:02:41.524Z,58.80
2023-03-08T09:05:10.943Z,46.30
2023-03-08T09:07:39.689Z,55.20
2023-03-08T09:10:10.502Z,48.50
2023-03-08T09:12:39.032Z,52.10
2023-03-08T09:15:11.747Z,48.30
2023-03-08T09:17:40.669Z,41.63
2023-03-08T09:20:11.731Z,44.47
2023-03-08T09:22:40.747Z,45.50
2023-03-08T09:25:11.186Z,49.90
2023-03-08T09:27:41.263Z,42.70
2023-03-08T09:30:16.112Z,44.80
2023-03-08T09:32:45.083Z,40.60
2023-03-08T09:35:15.252Z,46.90
2023-03-08T09:37:43.707Z,42.67
2023-03-08T09:40:21.622Z,47.47
2023-03-08T09:42:50.158Z,33.30
2023-03-08T09:45:25.167Z,39.00
2023-03-08T09:48:04.905Z,36.13
2023-03-08T09:50:43.705Z,25.27
2023-03-08T09:53:25.430Z,27.27
2023-03-08T09:55:59.115Z,36.50
2023-03-08T09:58:35.816Z,30.87
2023-03-08T10:01:23.216Z,27.90
2023-03-08T10:04:25.122Z,27.23
2023-03-08T10:07:18.310Z,26.73
2023-03-08T10:09:54.105Z,22.90
2023-03-08T10:12:30.409Z,24.90
2023-03-08T10:15:04.890Z,25.43
2023-03-08T10:17:44.634Z,26.40
2023-03-08T10:20:21.131Z,32.77
2023-03-08T10:22:58.525Z,28.63
2023-03-08T10:25:31.330Z,24.43
2023-03-08T10:28:02.420Z,23.23
2023-03-08T10:30:38.206Z,24.43
2023-03-08T10:33:12.416Z,25.57
2023-03-08T10:35:58.113Z,32.63
2023-03-08T10:38:30.117Z,26.70
2023-03-08T10:41:07.733Z,21.63
2023-03-08T10:43:41.421Z,27.97
2023-03-08T10:46:16.049Z,26.60
2023-03-08T10:48:46.688Z,25.73
2023-03-08T10:51:20.753Z,29.43
2023-03-08T10:53:56.516Z,28.50
2023-03-08T10:56:32.555Z,24.87
2023-03-08T10:59:01.456Z,28.60
2023-03-08T11:01:32.636Z,27.47
2023-03-08T11:04:06.155Z,20.60
2023-03-08T11:06:36.325Z,22.00
2023-03-08T11:09:20.046Z,21.80
2023-03-08T11:11:48.872Z,22.30
2023-03-08T11:14:18.144Z,23.10
2023-03-08T11:16:56.368Z,23.50
2023-03-08T11:20:14.799Z,22.10
2023-03-08T11:23:08.200Z,22.93
2023-03-08T11:25:46.913Z,20.13
2023-03-08T11:28:45.816Z,18.03
2023-03-08T11:31:23.776Z,18.10
2023-03-08T11:34:21.925Z,13.77
2023-03-08T11:37:01.728Z,14.27
2023-03-08T11:39:36.815Z,16.57
2023-03-08T11:42:16.558Z,17.70
2023-03-08T11:45:07.475Z,15.87
2023-03-08T11:48:08.545Z,22.60
2023-03-08T11:50:43.244Z,18.60
2023-03-08T11:53:23.706Z,18.13
2023-03-08T11:56:43.951Z,21.33
2023-03-08T11:59:21.089Z,21.93
2023-03-08T12:01:53.929Z,19.27
2023-03-08T12:04:32.283Z,19.00
2023-03-08T12:07:06.440Z,17.20
2023-03-08T12:09:43.739Z,14.63
2023-03-08T12:12:19.963Z,14.73
2023-03-08T12:14:58.251Z,16.60
2023-03-08T12:17:32.710Z,17.50
2023-03-08T12:20:01.179Z,16.77
2023-03-08T12:22:44.723Z,19.33
2023-03-08T12:25:25.721Z,20.47
2023-03-08T12:28:01.627Z,18.00
2023-03-08T12:30:49.996Z,18.07
2023-03-08T12:33:19.494Z,17.60
2023-03-08T12:35:55.208Z,18.43
2023-03-08T12:38:35.398Z,18.83
2023-03-08T12:41:08.086Z,19.70
2023-03-08T12:43:38.711Z,18.73
2023-03-08T12:46:10.605Z,18.30
2023-03-08T12:48:48.730Z,19.37
2023-03-08T12:51:26.913Z,19.40
2023-03-08T12:54:02.675Z,18.83
2023-03-08T12:56:35.784Z,19.20
2023-03-08T12:59:33.914Z,16.80
2023-03-08T13:02:23.933Z,18.17
2023-03-08T13:05:19.822Z,18.10
2023-03-08T13:08:21.351Z,19.30
2023-03-08T13:11:03.696Z,17.33
2023-03-08T13:13:44.889Z,18.87
2023-03-08T13:16:33.503Z,18.27
2023-03-08T13:19:26.096Z,18.37
2023-03-08T13:22:07.871Z,17.30
2023-03-08T13:24:48.497Z,15.50
2023-03-08T13:27:33.445Z,15.00
2023-03-08T13:30:23.673Z,17.13
2023-03-08T13:32:53.212Z,17.37
2023-03-08T13:35:22.479Z,18.43
2023-03-08T13:37:55.716Z,16.07
2023-03-08T13:40:25.812Z,16.10
2023-03-08T13:42:56.314Z,16.77
2023-03-08T13:45:27.395Z,15.40
2023-03-08T13:47:58.304Z,18.20
2023-03-08T13:50:32.641Z,15.27
2023-03-08T13:53:04.353Z,14.27
2023-03-08T13:55:36.581Z,16.37
2023-03-08T13:58:05.711Z,16.07
2023-03-08T14:00:36.941Z,16.80
2023-03-08T14:03:07.846Z,15.40
2023-03-08T14:05:44.157Z,15.30
2023-03-08T14:08:23.341Z,11.63
2023-03-08T14:10:57.924Z,17.33
2023-03-08T14:13:31.032Z,13.27
2023-03-08T14:16:03.343Z,11.70
2023-03-08T14:18:35.584Z,11.13
2023-03-08T14:21:08.593Z,12.43
2023-03-08T14:23:43.149Z,12.40
2023-03-08T14:26:34.267Z,15.00
2023-03-08T14:29:18.221Z,12.17
2023-03-08T14:32:01.631Z,13.30
2023-03-08T14:34:34.056Z,13.20
2023-03-08T14:37:07.090Z,11.53
2023-03-08T14:39:37.431Z,9.90
2023-03-08T14:42:20.034Z,12.67
2023-03-08T14:44:53.865Z,13.13
2023-03-08T14:47:27.504Z,12.93
2023-03-08T14:50:03.928Z,11.90
2023-03-08T14:52:36.071Z,12.80
2023-03-08T14:55:19.938Z,12.63
2023-03-08T14:57:48.362Z,12.20
2023-03-08T15:00:18.996Z,14.00
2023-03-08T15:02:48.964Z,14.00
2023-03-08T15:05:28.723Z,14.87
2023-03-08T15:08:00.483Z,13.47
2023-03-08T15:10:32.849Z,13.40
2023-03-08T15:13:01.986Z,15.37
2023-03-08T15:15:30.413Z,14.73
2023-03-08T15:18:00.125Z,18.23
2023-03-08T15:20:28.616Z,16.87
2023-03-08T15:23:00.858Z,18.00
2023-03-08T15:25:32.195Z,14.70
2023-03-08T15:28:00.551Z,15.67
2023-03-08T15:30:31.690Z,19.30
2023-03-08T15:33:02.645Z,15.50
2023-03-08T15:35:31.740Z,22.27
2023-03-08T15:38:00.379Z,17.40
2023-03-08T15:40:31.936Z,19.10
2023-03-08T15:43:01.022Z,20.10
2023-03-08T15:45:29.650Z,18.30
2023-03-08T15:48:01.078Z,19.20
2023-03-08T15:50:30.872Z,23.87
2023-03-08T15:52:59.878Z,18.93
2023-03-08T15:55:32.085Z,19.60
2023-03-08T15:58:00.849Z,20.37
2023-03-08T16:00:30.279Z,22.57
2023-03-08T16:03:00.190Z,20.17
2023-03-08T16:05:29.173Z,20.60
2023-03-08T16:07:59.974Z,21.10
2023-03-08T16:10:30.226Z,24.10
2023-03-08T16:12:58.923Z,24.13
2023-03-08T16:15:27.552Z,25.83
2023-03-08T16:17:56.682Z,28.00
2023-03-08T16:20:27.680Z,23.73
2023-03-08T16:22:57.719Z,23.20
2023-03-08T16:25:27.515Z,27.17
2023-03-08T16:27:57.237Z,28.30
2023-03-08T16:30:29.294Z,25.13
2023-03-08T16:33:00.260Z,25.17
2023-03-08T16:35:33.908Z,29.33
2023-03-08T16:38:04.046Z,32.20
2023-03-08T16:40:33.753Z,27.50
2023-03-08T16:43:02.314Z,32.03
2023-03-08T16:45:30.927Z,30.07
2023-03-08T16:47:59.428Z,28.00
2023-03-08T16:50:30.048Z,28.10
2023-03-08T16:52:59.571Z,31.60
2023-03-08T16:55:28.002Z,37.23
2023-03-08T16:57:56.524Z,29.57
2023-03-08T17:00:27.147Z,29.97
2023-03-08T17:02:55.525Z,28.97
2023-03-08T17:05:23.928Z,39.70
2023-03-08T17:07:53.653Z,28.47
2023-03-08T17:10:22.146Z,38.53
2023-03-08T17:12:50.846Z,35.50
2023-03-08T17:15:19.270Z,29.57
2023-03-08T17:17:47.652Z,41.73
2023-03-08T17:20:16.060Z,39.10
2023-03-08T17:22:45.058Z,37.07
2023-03-08T17:25:14.805Z,38.37
2023-03-08T17:27:43.159Z,33.73
2023-03-08T17:30:14.198Z,38.30
2023-03-08T17:32:42.842Z,37.57
2023-03-08T17:35:11.592Z,34.07
2023-03-08T17:37:41.618Z,39.80
2023-03-08T17:40:12.437Z,38.43
2023-03-08T17:42:42.535Z,47.70
2023-03-08T17:45:12.050Z,49.10
2023-03-08T17:47:40.638Z,45.53
2023-03-08T17:50:13.864Z,42.70
2023-03-08T17:52:42.637Z,43.13
2023-03-08T17:55:12.342Z,48.80
2023-03-08T17:57:42.177Z,45.57
2023-03-08T18:00:12.613Z,57.53
2023-03-08T18:02:40.993Z,51.77
2023-03-08T18:05:11.105Z,47.83
2023-03-08T18:07:41.884Z,58.10
2023-03-08T18:10:13.308Z,51.33
2023-03-08T18:12:43.174Z,54.40
2023-03-08T18:15:14.582Z,49.30
2023-03-08T18:17:43.144Z,62.10
2023-03-08T18:20:12.987Z,63.07
2023-03-08T18:22:41.963Z,50.77
2023-03-08T18:25:11.307Z,55.30
2023-03-08T18:27:40.361Z,57.10
2023-03-08T18:30:13.129Z,53.80
2023-03-08T18:32:41.929Z,60.90
2023-03-08T18:35:13.310Z,59.67
2023-03-08T18:37:41.795Z,69.00
2023-03-08T18:40:12.584Z,64.33
2023-03-08T18:42:41.146Z,56.43
2023-03-08T18:45:12.345Z,72.83
2023-03-08T18:47:40.801Z,65.80
2023-03-08T18:50:11.383Z,71.17
2023-03-08T18:52:39.830Z,71.07
2023-03-08T18:55:09.764Z,83.67
2023-03-08T18:57:39.196Z,77.03
2023-03-08T19:00:12.042Z,78.50
2023-03-08T19:02:40.565Z,64.97
2023-03-08T19:05:10.115Z,77.80
2023-03-08T19:07:41.173Z,69.03
2023-03-08T19:10:14.713Z,72.57
2023-03-08T19:12:43.922Z,66.27
2023-03-08T19:15:13.836Z,68.87
2023-03-08T19:17:42.435Z,72.77
2023-03-08T19:20:12.787Z,66.17
2023-03-08T19:22:41.315Z,68.30
2023-03-08T19:25:10.637Z,72.03
2023-03-08T19:27:39.251Z,70.63
2023-03-08T19:30:09.226Z,69.43
2023-03-08T19:32:40.987Z,73.37
2023-03-08T19:35:11.323Z,73.23
2023-03-08T19:37:39.970Z,75.07
2023-03-08T19:40:10.527Z,73.63
2023-03-08T19:42:38.945Z,70.17
2023-03-08T19:45:09.145Z,64.17
2023-03-08T19:47:38.919Z,76.10
2023-03-08T19:50:08.812Z,72.07
2023-03-08T19:52:37.400Z,77.73
2023-03-08T19:55:07.638Z,76.53
2023-03-08T19:57:36.485Z,72.50
2023-03-08T20:00:06.916Z,80.03
2023-03-08T20:02:45.677Z,63.97
2023-03-08T20:05:14.108Z,68.90
2023-03-08T20:07:42.453Z,63.33
2023-03-08T20:10:17.743Z,62.33
2023-03-08T20:12:47.119Z,66.70
2023-03-08T20:15:15.580Z,61.77
2023-03-08T20:17:47.895Z,68.23
2023-03-08T20:20:17.060Z,66.70
2023-03-08T20:22:45.493Z,79.70
2023-03-08T20:25:13.975Z,64.03
2023-03-08T20:27:43.654Z,69.87
2023-03-08T20:30:14.922Z,76.77
2023-03-08T20:32:44.772Z,76.87
2023-03-08T20:35:15.012Z,85.57
2023-03-08T20:37:43.875Z,73.60
2023-03-08T20:40:14.668Z,74.93
2023-03-08T20:42:43.412Z,96.10
2023-03-08T20:45:13.201Z,77.07
2023-03-08T20:47:41.611Z,68.23
2023-03-08T20:50:13.005Z,72.70
2023-03-08T20:52:41.369Z,71.77
2023-03-08T20:55:10.437Z,83.90
2023-03-08T20:57:39.260Z,78.23
2023-03-08T21:00:09.888Z,69.10
2023-03-08T21:02:38.749Z,72.80
2023-03-08T21:05:08.463Z,79.07
2023-03-08T21:07:38.337Z,83.70
2023-03-08T21:10:07.792Z,73.23
2023-03-08T21:12:38.719Z,76.80
2023-03-08T21:15:09.207Z,81.17
2023-03-08T21:17:39.946Z,81.17
2023-03-08T21:20:10.875Z,74.73
2023-03-08T21:22:40.607Z,73.80
2023-03-08T21:25:10.062Z,77.57
2023-03-08T21:27:38.529Z,78.70
2023-03-08T21:30:08.722Z,73.73
2023-03-08T21:32:37.287Z,73.43
2023-03-08T21:35:06.530Z,76.97
2023-03-08T21:37:35.664Z,82.63
2023-03-08T21:40:07.250Z,82.00
2023-03-08T21:42:35.820Z,83.90
2023-03-08T21:45:04.448Z,88.27
2023-03-08T21:47:32.980Z,86.40
2023-03-08T21:50:01.313Z,97.00
2023-03-08T21:52:29.763Z,91.87
2023-03-08T21:54:58.091Z,90.07
2023-03-08T21:57:27.867Z,96.60
2023-03-08T21:59:56.199Z,96.70
2023-03-08T22:02:24.581Z,78.47
2023-03-08T22:04:53.072Z,101.40
2023-03-08T22:07:21.506Z,87.83
2023-03-08T22:09:49.883Z,83.33
2023-03-08T22:12:19.719Z,83.93
2023-03-08T22:14:49.489Z,78.50
2023-03-08T22:17:17.796Z,77.47
2023-03-08T22:19:46.132Z,85.10
2023-03-08T22:22:14.459Z,87.83
2023-03-08T22:24:42.819Z,89.80
2023-03-08T22:27:13.099Z,81.73
2023-03-08T22:29:41.688Z,82.70
2023-03-08T22:32:11.718Z,104.60
2023-03-08T22:34:40.258Z,76.43
2023-03-08T22:37:08.955Z,95.07
2023-03-08T22:39:38.667Z,83.33
2023-03-08T22:42:07.414Z,107.80
2023-03-08T22:44:35.921Z,87.23
2023-03-08T22:47:04.385Z,67.80
2023-03-08T22:49:34.407Z,107.97
2023-03-08T22:52:03.243Z,91.43
2023-03-08T22:54:31.951Z,92.43
2023-03-08T22:57:00.320Z,87.93
2023-03-08T22:59:28.923Z,78.63
2023-03-08T23:01:57.506Z,91.00
2023-03-08T23:04:25.926Z,91.93
2023-03-08T23:06:55.889Z,83.80
2023-03-08T23:09:24.360Z,92.90
2023-03-08T23:11:52.750Z,100.70
2023-03-08T23:14:21.222Z,106.20
2023-03-08T23:16:49.720Z,85.80
2023-03-08T23:19:21.682Z,85.33
2023-03-08T23:21:50.385Z,87.10
2023-03-08T23:24:20.724Z,95.13
2023-03-08T23:26:49.218Z,91.73
2023-03-08T23:29:17.710Z,96.83
2023-03-08T23:31:47.639Z,107.93
2023-03-08T23:34:16.116Z,94.97
2023-03-08T23:36:44.547Z,103.13
2023-03-08T23:39:13.157Z,99.77
2023-03-08T23:41:42.983Z,96.47
2023-03-08T23:44:12.438Z,110.33
2023-03-08T23:46:41.192Z,98.90
2023-03-08T23:49:10.494Z,113.03
2023-03-08T23:51:38.877Z,94.50
2023-03-08T23:54:07.322Z,92.40
2023-03-08T23:56:38.804Z,87.07
2023-03-08T23:59:13.124Z,96.17
